joomla templates top joomla templates template joomla

King Air Abend

Wetterbeurteilung mit Hilfe Webcam und ATIS

 

Webcam 1Webcam 2

(Zum vergrößern auf das Bild klicken)

Notam

C0503/18 - COBURG INFO CHANGED TO 128.680 (8.33 KHZ). 28 FEB 12:22 2018 UNTIL PERM. CREATED:
28 FEB 12:22 2018

C1109/18 - ATIS NOT AVBL. 24 APR 14:36 2018 UNTIL 24 JUL 23:59 2018 ESTIMATED. CREATED: 24 APR 14:43 2018

C0132/18 - DIRECTION FINDING STATION (VDF) COMPLETELY WITHDRAWN. 15 FEB 00:01 2018 UNTIL PERM. CREATED: 19 JAN 10:58 2018

Wetteranzeige

Aktuelles Platzwetter Stand 21.09.2018 19:26Z

AvgMinMax
Windrichtung250240270Deg
Windgeschwindigkeit9513kt
Sichtweite>10000m
Temperatur11°C
Taupunkt9°C
Feuchte86%
QNH1016.0hPa
QFE962.5hPa
WolkenSKC

Aerodrome Terminal Information Service (ATIS) Coburg

METAR
EDQC 211920Z AUTO 26008KT CAVOK 11/09 Q1015=

METAR und TAF der Umgebung

[Quelle: ADDS]
METAR
EDDF 211920Z 23007KT CAVOK 14/05 Q1017 NOSIG =
EDDF 211700Z 2118/2224 25012KT CAVOK PROB30 TEMPO 2118/2120 25015G25KT BECMG 2120/2123 22006KT TEMPO 2204/2209 BKN020 BECMG 2209/2211 24012KT BECMG 2218/2220 24005KT EDDN 211920Z 28013KT 9999 FEW020 BKN070 BKN150 13/10 Q1017 NOSIG =
EDDN 211700Z 2118/2218 27008KT 9999 SCT040 EDDE 211920Z 24013KT 9999 FEW023 SCT100 BKN180 12/08 Q1014 NOSIG =
EDDE 211700Z 2118/2218 25010G20KT 9999 SCT035 TEMPO 2208/2215 27020G30KT
TAF
EDDF 211700Z 2118/2224 25012KT CAVOK PROB30 TEMPO 2118/2120 25015G25KT BECMG 2120/2123 22006KT TEMPO 2204/2209 BKN020 BECMG 2209/2211 24012KT BECMG 2218/2220 24005KT =
EDDN 211700Z 2118/2218 27008KT 9999 SCT040 =
EDDE 211700Z 2118/2218 25010G20KT 9999 SCT035 TEMPO 2208/2215 27020G30KT =

Wetterverlauf

Windvorhersage

Verkehrslandeplatz Coburg Brandensteinsebene
Tower
Zur Brandensteinsebene
96450 Coburg

 

Telefon +49 (0) 95 61 / 9 20 98
Telefax +49 (0) 95 61 / 9 20 06
EMail tower@vlp-coburg.de